sensor_id;sensor_type;location;lat;lon;timestamp;temperature;humidity
83327;DHT22;73250;55.594;13.020;2024-02-28T00:00:24;22.10;37.10
83327;DHT22;73250;55.594;13.020;2024-02-28T00:02:51;22.10;37.00
83327;DHT22;73250;55.594;13.020;2024-02-28T00:05:18;22.10;37.10
83327;DHT22;73250;55.594;13.020;2024-02-28T00:07:44;22.10;37.10
83327;DHT22;73250;55.594;13.020;2024-02-28T00:10:12;22.10;37.10
83327;DHT22;73250;55.594;13.020;2024-02-28T00:12:39;22.10;37.10
83327;DHT22;73250;55.594;13.020;2024-02-28T00:15:07;22.10;37.10
83327;DHT22;73250;55.594;13.020;2024-02-28T00:17:38;22.10;37.10
83327;DHT22;73250;55.594;13.020;2024-02-28T00:20:06;22.10;37.10
83327;DHT22;73250;55.594;13.020;2024-02-28T00:22:33;22.10;37.20
83327;DHT22;73250;55.594;13.020;2024-02-28T00:24:59;22.10;37.20
83327;DHT22;73250;55.594;13.020;2024-02-28T00:27:26;22.10;37.20
83327;DHT22;73250;55.594;13.020;2024-02-28T00:29:53;22.10;37.10
83327;DHT22;73250;55.594;13.020;2024-02-28T00:32:20;22.10;37.20
83327;DHT22;73250;55.594;13.020;2024-02-28T00:34:48;22.10;37.20
83327;DHT22;73250;55.594;13.020;2024-02-28T00:37:15;22.10;37.20
83327;DHT22;73250;55.594;13.020;2024-02-28T00:39:43;22.10;37.20
83327;DHT22;73250;55.594;13.020;2024-02-28T00:42:10;22.10;37.20
83327;DHT22;73250;55.594;13.020;2024-02-28T00:44:36;22.10;37.20
83327;DHT22;73250;55.594;13.020;2024-02-28T00:47:03;22.10;37.20
83327;DHT22;73250;55.594;13.020;2024-02-28T00:49:30;22.10;37.20
83327;DHT22;73250;55.594;13.020;2024-02-28T00:51:58;22.00;37.10
83327;DHT22;73250;55.594;13.020;2024-02-28T00:54:25;22.10;37.20
83327;DHT22;73250;55.594;13.020;2024-02-28T00:56:51;22.10;37.20
83327;DHT22;73250;55.594;13.020;2024-02-28T00:59:18;22.10;37.20
83327;DHT22;73250;55.594;13.020;2024-02-28T01:01:45;22.10;37.20
83327;DHT22;73250;55.594;13.020;2024-02-28T01:04:11;22.00;37.20
83327;DHT22;73250;55.594;13.020;2024-02-28T01:06:38;22.00;37.10
83327;DHT22;73250;55.594;13.020;2024-02-28T01:09:06;22.00;37.10
83327;DHT22;73250;55.594;13.020;2024-02-28T01:11:33;22.00;37.10
83327;DHT22;73250;55.594;13.020;2024-02-28T01:14:00;22.00;37.20
83327;DHT22;73250;55.594;13.020;2024-02-28T01:16:26;22.00;37.10
83327;DHT22;73250;55.594;13.020;2024-02-28T01:18:53;22.00;37.20
83327;DHT22;73250;55.594;13.020;2024-02-28T01:21:20;22.00;37.10
83327;DHT22;73250;55.594;13.020;2024-02-28T01:23:46;22.00;37.10
83327;DHT22;73250;55.594;13.020;2024-02-28T01:26:14;22.00;37.10
83327;DHT22;73250;55.594;13.020;2024-02-28T01:28:41;22.00;37.10
83327;DHT22;73250;55.594;13.020;2024-02-28T01:31:09;22.00;37.10
83327;DHT22;73250;55.594;13.020;2024-02-28T01:33:35;22.00;37.20
83327;DHT22;73250;55.594;13.020;2024-02-28T01:36:03;22.00;37.20
83327;DHT22;73250;55.594;13.020;2024-02-28T01:38:32;22.00;37.20
83327;DHT22;73250;55.594;13.020;2024-02-28T01:40:58;22.00;37.20
83327;DHT22;73250;55.594;13.020;2024-02-28T01:43:26;22.00;37.20
83327;DHT22;73250;55.594;13.020;2024-02-28T01:45:53;22.00;37.20
83327;DHT22;73250;55.594;13.020;2024-02-28T01:48:20;22.00;37.20
83327;DHT22;73250;55.594;13.020;2024-02-28T01:50:47;22.00;37.10
83327;DHT22;73250;55.594;13.020;2024-02-28T01:53:14;22.00;37.20
83327;DHT22;73250;55.594;13.020;2024-02-28T01:55:41;22.00;37.20
83327;DHT22;73250;55.594;13.020;2024-02-28T01:58:08;22.00;37.20
83327;DHT22;73250;55.594;13.020;2024-02-28T02:00:39;22.00;37.20
83327;DHT22;73250;55.594;13.020;2024-02-28T02:03:06;22.00;37.20
83327;DHT22;73250;55.594;13.020;2024-02-28T02:05:33;22.00;37.20
83327;DHT22;73250;55.594;13.020;2024-02-28T02:08:01;22.00;37.20
83327;DHT22;73250;55.594;13.020;2024-02-28T02:10:28;22.00;37.20
83327;DHT22;73250;55.594;13.020;2024-02-28T02:12:55;22.00;37.20
83327;DHT22;73250;55.594;13.020;2024-02-28T02:15:21;22.00;37.20
83327;DHT22;73250;55.594;13.020;2024-02-28T02:17:49;22.00;37.20
83327;DHT22;73250;55.594;13.020;2024-02-28T02:20:17;22.00;37.20
83327;DHT22;73250;55.594;13.020;2024-02-28T02:22:47;22.00;37.20
83327;DHT22;73250;55.594;13.020;2024-02-28T02:25:14;22.00;37.20
83327;DHT22;73250;55.594;13.020;2024-02-28T02:27:41;22.00;37.20
83327;DHT22;73250;55.594;13.020;2024-02-28T02:30:08;22.00;37.20
83327;DHT22;73250;55.594;13.020;2024-02-28T02:32:35;22.00;37.30
83327;DHT22;73250;55.594;13.020;2024-02-28T02:35:01;22.00;37.30
83327;DHT22;73250;55.594;13.020;2024-02-28T02:37:28;22.00;37.20
83327;DHT22;73250;55.594;13.020;2024-02-28T02:39:56;22.00;37.30
83327;DHT22;73250;55.594;13.020;2024-02-28T02:42:23;22.00;37.30
83327;DHT22;73250;55.594;13.020;2024-02-28T02:44:49;22.00;37.30
83327;DHT22;73250;55.594;13.020;2024-02-28T02:47:15;22.00;37.30
83327;DHT22;73250;55.594;13.020;2024-02-28T02:49:42;22.00;37.30
83327;DHT22;73250;55.594;13.020;2024-02-28T02:52:09;21.90;37.20
83327;DHT22;73250;55.594;13.020;2024-02-28T02:54:36;21.90;37.30
83327;DHT22;73250;55.594;13.020;2024-02-28T02:57:04;21.90;37.30
83327;DHT22;73250;55.594;13.020;2024-02-28T02:59:31;22.00;37.30
83327;DHT22;73250;55.594;13.020;2024-02-28T03:01:58;22.00;37.30
83327;DHT22;73250;55.594;13.020;2024-02-28T03:04:25;21.90;37.30
83327;DHT22;73250;55.594;13.020;2024-02-28T03:06:51;21.90;37.30
83327;DHT22;73250;55.594;13.020;2024-02-28T03:09:18;21.90;37.30
83327;DHT22;73250;55.594;13.020;2024-02-28T03:11:45;21.90;37.30
83327;DHT22;73250;55.594;13.020;2024-02-28T03:14:13;21.90;37.30
83327;DHT22;73250;55.594;13.020;2024-02-28T03:16:41;21.90;37.30
83327;DHT22;73250;55.594;13.020;2024-02-28T03:19:08;21.90;37.30
83327;DHT22;73250;55.594;13.020;2024-02-28T03:21:35;21.90;37.30
83327;DHT22;73250;55.594;13.020;2024-02-28T03:24:02;21.90;37.30
83327;DHT22;73250;55.594;13.020;2024-02-28T03:26:29;21.90;37.30
83327;DHT22;73250;55.594;13.020;2024-02-28T03:28:55;21.90;37.30
83327;DHT22;73250;55.594;13.020;2024-02-28T03:31:23;21.90;37.30
83327;DHT22;73250;55.594;13.020;2024-02-28T03:33:50;21.90;37.30
83327;DHT22;73250;55.594;13.020;2024-02-28T03:36:17;21.90;37.20
83327;DHT22;73250;55.594;13.020;2024-02-28T03:38:44;21.90;37.30
83327;DHT22;73250;55.594;13.020;2024-02-28T03:41:10;21.90;37.30
83327;DHT22;73250;55.594;13.020;2024-02-28T03:43:37;21.90;37.30
83327;DHT22;73250;55.594;13.020;2024-02-28T03:46:04;21.90;37.30
83327;DHT22;73250;55.594;13.020;2024-02-28T03:48:32;21.90;37.40
83327;DHT22;73250;55.594;13.020;2024-02-28T03:50:58;21.90;37.40
83327;DHT22;73250;55.594;13.020;2024-02-28T03:53:25;21.90;37.40
83327;DHT22;73250;55.594;13.020;2024-02-28T03:55:52;21.90;37.30
83327;DHT22;73250;55.594;13.020;2024-02-28T03:58:19;21.90;37.40
83327;DHT22;73250;55.594;13.020;2024-02-28T04:00:46;21.90;37.30
83327;DHT22;73250;55.594;13.020;2024-02-28T04:03:13;21.90;37.40
83327;DHT22;73250;55.594;13.020;2024-02-28T04:05:41;21.90;37.40
83327;DHT22;73250;55.594;13.020;2024-02-28T04:08:08;21.90;37.30
83327;DHT22;73250;55.594;13.020;2024-02-28T04:10:35;21.90;37.30
83327;DHT22;73250;55.594;13.020;2024-02-28T04:13:01;21.90;37.40
83327;DHT22;73250;55.594;13.020;2024-02-28T04:15:30;21.90;37.30
83327;DHT22;73250;55.594;13.020;2024-02-28T04:17:57;21.90;37.30
83327;DHT22;73250;55.594;13.020;2024-02-28T04:20:24;21.90;37.30
83327;DHT22;73250;55.594;13.020;2024-02-28T04:22:52;21.90;37.30
83327;DHT22;73250;55.594;13.020;2024-02-28T04:25:19;21.90;37.30
83327;DHT22;73250;55.594;13.020;2024-02-28T04:27:45;21.90;37.30
83327;DHT22;73250;55.594;13.020;2024-02-28T04:30:13;21.90;37.30
83327;DHT22;73250;55.594;13.020;2024-02-28T04:32:39;21.90;37.30
83327;DHT22;73250;55.594;13.020;2024-02-28T04:35:07;21.90;37.30
83327;DHT22;73250;55.594;13.020;2024-02-28T04:37:34;21.90;37.30
83327;DHT22;73250;55.594;13.020;2024-02-28T04:40:03;21.80;37.20
83327;DHT22;73250;55.594;13.020;2024-02-28T04:42:29;21.90;37.30
83327;DHT22;73250;55.594;13.020;2024-02-28T04:44:56;21.80;37.20
83327;DHT22;73250;55.594;13.020;2024-02-28T04:47:23;21.90;37.20
83327;DHT22;73250;55.594;13.020;2024-02-28T04:49:49;21.90;37.30
83327;DHT22;73250;55.594;13.020;2024-02-28T04:52:16;21.80;37.20
83327;DHT22;73250;55.594;13.020;2024-02-28T04:54:43;21.80;37.20
83327;DHT22;73250;55.594;13.020;2024-02-28T04:57:11;21.90;37.30
83327;DHT22;73250;55.594;13.020;2024-02-28T04:59:38;21.90;37.20
83327;DHT22;73250;55.594;13.020;2024-02-28T05:02:05;21.80;37.20
83327;DHT22;73250;55.594;13.020;2024-02-28T05:04:32;21.80;37.30
83327;DHT22;73250;55.594;13.020;2024-02-28T05:06:58;21.80;37.30
83327;DHT22;73250;55.594;13.020;2024-02-28T05:09:25;21.80;37.20
83327;DHT22;73250;55.594;13.020;2024-02-28T05:11:52;21.80;37.20
83327;DHT22;73250;55.594;13.020;2024-02-28T05:14:20;21.80;37.20
83327;DHT22;73250;55.594;13.020;2024-02-28T05:16:47;21.80;37.20
83327;DHT22;73250;55.594;13.020;2024-02-28T05:19:13;21.80;37.20
83327;DHT22;73250;55.594;13.020;2024-02-28T05:21:43;21.80;37.30
83327;DHT22;73250;55.594;13.020;2024-02-28T05:24:10;21.80;37.20
83327;DHT22;73250;55.594;13.020;2024-02-28T05:26:37;21.80;37.90
83327;DHT22;73250;55.594;13.020;2024-02-28T05:29:05;21.80;37.20
83327;DHT22;73250;55.594;13.020;2024-02-28T05:31:33;21.80;37.20
83327;DHT22;73250;55.594;13.020;2024-02-28T05:34:01;21.80;37.20
83327;DHT22;73250;55.594;13.020;2024-02-28T05:36:28;21.80;37.30
83327;DHT22;73250;55.594;13.020;2024-02-28T05:38:56;21.80;37.20
83327;DHT22;73250;55.594;13.020;2024-02-28T05:41:24;21.80;37.20
83327;DHT22;73250;55.594;13.020;2024-02-28T05:43:52;21.80;37.30
83327;DHT22;73250;55.594;13.020;2024-02-28T05:46:19;21.80;37.20
83327;DHT22;73250;55.594;13.020;2024-02-28T05:48:48;21.80;37.20
83327;DHT22;73250;55.594;13.020;2024-02-28T05:51:16;21.80;37.20
83327;DHT22;73250;55.594;13.020;2024-02-28T05:53:43;21.80;37.20
83327;DHT22;73250;55.594;13.020;2024-02-28T05:56:10;21.80;37.20
83327;DHT22;73250;55.594;13.020;2024-02-28T05:58:40;21.80;37.20
83327;DHT22;73250;55.594;13.020;2024-02-28T06:01:07;21.80;37.20
83327;DHT22;73250;55.594;13.020;2024-02-28T06:03:34;21.80;37.20
83327;DHT22;73250;55.594;13.020;2024-02-28T06:06:03;21.80;37.30
83327;DHT22;73250;55.594;13.020;2024-02-28T06:08:32;21.80;37.20
83327;DHT22;73250;55.594;13.020;2024-02-28T06:10:58;21.80;37.20
83327;DHT22;73250;55.594;13.020;2024-02-28T06:13:26;21.80;37.20
83327;DHT22;73250;55.594;13.020;2024-02-28T06:15:53;21.80;37.20
83327;DHT22;73250;55.594;13.020;2024-02-28T06:18:20;21.80;37.20
83327;DHT22;73250;55.594;13.020;2024-02-28T06:20:48;21.80;37.20
83327;DHT22;73250;55.594;13.020;2024-02-28T06:23:18;21.80;37.20
83327;DHT22;73250;55.594;13.020;2024-02-28T06:25:45;21.80;37.20
83327;DHT22;73250;55.594;13.020;2024-02-28T06:28:12;21.80;37.20
83327;DHT22;73250;55.594;13.020;2024-02-28T06:30:39;21.70;37.10
83327;DHT22;73250;55.594;13.020;2024-02-28T06:33:06;21.80;37.30
83327;DHT22;73250;55.594;13.020;2024-02-28T06:35:37;21.80;37.20
83327;DHT22;73250;55.594;13.020;2024-02-28T06:38:04;21.80;37.20
83327;DHT22;73250;55.594;13.020;2024-02-28T06:40:32;21.70;37.20
83327;DHT22;73250;55.594;13.020;2024-02-28T06:42:59;21.80;37.20
83327;DHT22;73250;55.594;13.020;2024-02-28T06:45:25;21.70;37.20
83327;DHT22;73250;55.594;13.020;2024-02-28T06:47:52;21.70;37.20
83327;DHT22;73250;55.594;13.020;2024-02-28T06:50:19;21.70;37.10
83327;DHT22;73250;55.594;13.020;2024-02-28T06:52:46;21.70;37.20
83327;DHT22;73250;55.594;13.020;2024-02-28T06:55:12;21.70;37.10
83327;DHT22;73250;55.594;13.020;2024-02-28T06:57:42;21.70;37.10
83327;DHT22;73250;55.594;13.020;2024-02-28T07:00:10;21.70;37.10
83327;DHT22;73250;55.594;13.020;2024-02-28T07:02:37;21.70;37.20
83327;DHT22;73250;55.594;13.020;2024-02-28T07:05:04;21.70;37.20
83327;DHT22;73250;55.594;13.020;2024-02-28T07:07:32;21.70;37.20
83327;DHT22;73250;55.594;13.020;2024-02-28T07:09:59;21.70;37.20
83327;DHT22;73250;55.594;13.020;2024-02-28T07:12:26;21.70;37.20
83327;DHT22;73250;55.594;13.020;2024-02-28T07:14:54;21.70;37.20
83327;DHT22;73250;55.594;13.020;2024-02-28T07:17:21;21.70;37.20
83327;DHT22;73250;55.594;13.020;2024-02-28T07:19:48;21.70;37.20
83327;DHT22;73250;55.594;13.020;2024-02-28T07:22:17;21.70;37.20
83327;DHT22;73250;55.594;13.020;2024-02-28T07:24:43;21.70;37.20
83327;DHT22;73250;55.594;13.020;2024-02-28T07:27:10;21.70;37.90
83327;DHT22;73250;55.594;13.020;2024-02-28T07:29:37;21.70;37.20
83327;DHT22;73250;55.594;13.020;2024-02-28T07:32:06;21.70;37.20
83327;DHT22;73250;55.594;13.020;2024-02-28T07:34:32;21.70;37.20
83327;DHT22;73250;55.594;13.020;2024-02-28T07:37:00;21.70;37.20
83327;DHT22;73250;55.594;13.020;2024-02-28T07:39:26;21.70;37.30
83327;DHT22;73250;55.594;13.020;2024-02-28T07:41:53;21.70;37.20
83327;DHT22;73250;55.594;13.020;2024-02-28T07:44:20;21.70;37.30
83327;DHT22;73250;55.594;13.020;2024-02-28T07:46:46;21.70;37.30
83327;DHT22;73250;55.594;13.020;2024-02-28T07:49:14;21.70;37.20
83327;DHT22;73250;55.594;13.020;2024-02-28T07:51:41;21.70;37.20
83327;DHT22;73250;55.594;13.020;2024-02-28T07:54:08;21.70;37.20
83327;DHT22;73250;55.594;13.020;2024-02-28T07:56:35;21.70;37.30
83327;DHT22;73250;55.594;13.020;2024-02-28T07:59:01;21.70;37.60
83327;DHT22;73250;55.594;13.020;2024-02-28T08:01:28;21.70;37.40
83327;DHT22;73250;55.594;13.020;2024-02-28T08:03:56;21.70;37.40
83327;DHT22;73250;55.594;13.020;2024-02-28T08:06:24;21.70;37.20
83327;DHT22;73250;55.594;13.020;2024-02-28T08:08:51;21.70;37.20
83327;DHT22;73250;55.594;13.020;2024-02-28T08:11:17;21.70;37.30
83327;DHT22;73250;55.594;13.020;2024-02-28T08:13:44;21.70;37.40
83327;DHT22;73250;55.594;13.020;2024-02-28T08:16:11;21.70;37.30
83327;DHT22;73250;55.594;13.020;2024-02-28T08:18:38;21.70;37.40
83327;DHT22;73250;55.594;13.020;2024-02-28T08:21:05;21.80;37.70
83327;DHT22;73250;55.594;13.020;2024-02-28T08:23:33;21.80;37.60
83327;DHT22;73250;55.594;13.020;2024-02-28T08:25:59;21.80;37.40
83327;DHT22;73250;55.594;13.020;2024-02-28T08:28:26;21.80;37.60
83327;DHT22;73250;55.594;13.020;2024-02-28T08:30:53;21.80;37.50
83327;DHT22;73250;55.594;13.020;2024-02-28T08:33:19;21.80;37.30
83327;DHT22;73250;55.594;13.020;2024-02-28T08:35:46;21.80;37.30
83327;DHT22;73250;55.594;13.020;2024-02-28T08:38:15;21.80;37.50
83327;DHT22;73250;55.594;13.020;2024-02-28T08:40:43;21.80;37.50
83327;DHT22;73250;55.594;13.020;2024-02-28T08:43:10;21.80;37.50
83327;DHT22;73250;55.594;13.020;2024-02-28T08:45:37;21.80;37.60
83327;DHT22;73250;55.594;13.020;2024-02-28T08:48:05;21.80;37.60
83327;DHT22;73250;55.594;13.020;2024-02-28T08:50:32;21.90;37.60
83327;DHT22;73250;55.594;13.020;2024-02-28T08:52:59;21.80;37.60
83327;DHT22;73250;55.594;13.020;2024-02-28T08:55:25;21.90;37.90
83327;DHT22;73250;55.594;13.020;2024-02-28T08:57:55;21.90;37.90
83327;DHT22;73250;55.594;13.020;2024-02-28T09:00:22;21.90;37.90
83327;DHT22;73250;55.594;13.020;2024-02-28T09:02:48;21.90;37.90
83327;DHT22;73250;55.594;13.020;2024-02-28T09:05:15;21.90;37.70
83327;DHT22;73250;55.594;13.020;2024-02-28T09:07:42;21.90;37.80
83327;DHT22;73250;55.594;13.020;2024-02-28T09:10:09;21.90;37.70
83327;DHT22;73250;55.594;13.020;2024-02-28T09:12:37;21.90;37.80
83327;DHT22;73250;55.594;13.020;2024-02-28T09:15:06;21.90;37.90
83327;DHT22;73250;55.594;13.020;2024-02-28T09:17:33;21.90;38.20
83327;DHT22;73250;55.594;13.020;2024-02-28T09:19:59;21.90;38.00
83327;DHT22;73250;55.594;13.020;2024-02-28T09:22:27;21.90;38.00
83327;DHT22;73250;55.594;13.020;2024-02-28T09:24:54;22.00;37.90
83327;DHT22;73250;55.594;13.020;2024-02-28T09:27:20;22.00;38.20
83327;DHT22;73250;55.594;13.020;2024-02-28T09:29:47;22.00;38.20
83327;DHT22;73250;55.594;13.020;2024-02-28T09:32:15;22.00;38.10
83327;DHT22;73250;55.594;13.020;2024-02-28T09:34:44;22.00;38.20
83327;DHT22;73250;55.594;13.020;2024-02-28T09:37:10;22.00;38.10
83327;DHT22;73250;55.594;13.020;2024-02-28T09:39:38;22.00;38.10
83327;DHT22;73250;55.594;13.020;2024-02-28T09:42:06;22.00;38.20
83327;DHT22;73250;55.594;13.020;2024-02-28T09:44:34;22.00;38.20
83327;DHT22;73250;55.594;13.020;2024-02-28T09:47:01;22.00;38.40
83327;DHT22;73250;55.594;13.020;2024-02-28T09:49:31;22.00;38.20
83327;DHT22;73250;55.594;13.020;2024-02-28T09:51:59;22.00;38.30
83327;DHT22;73250;55.594;13.020;2024-02-28T09:54:26;22.00;38.20
83327;DHT22;73250;55.594;13.020;2024-02-28T09:56:52;22.00;38.30
83327;DHT22;73250;55.594;13.020;2024-02-28T09:59:20;22.10;38.30
83327;DHT22;73250;55.594;13.020;2024-02-28T10:01:52;22.00;38.20
83327;DHT22;73250;55.594;13.020;2024-02-28T10:04:20;22.00;38.30
83327;DHT22;73250;55.594;13.020;2024-02-28T10:06:48;22.00;38.20
83327;DHT22;73250;55.594;13.020;2024-02-28T10:09:15;22.00;38.10
83327;DHT22;73250;55.594;13.020;2024-02-28T10:11:42;22.10;38.30
83327;DHT22;73250;55.594;13.020;2024-02-28T10:14:10;22.10;38.20
83327;DHT22;73250;55.594;13.020;2024-02-28T10:16:36;22.10;38.20
83327;DHT22;73250;55.594;13.020;2024-02-28T10:19:05;22.10;38.20
83327;DHT22;73250;55.594;13.020;2024-02-28T10:21:32;22.00;38.10
83327;DHT22;73250;55.594;13.020;2024-02-28T10:24:00;22.10;37.80
83327;DHT22;73250;55.594;13.020;2024-02-28T10:26:27;22.10;37.80
83327;DHT22;73250;55.594;13.020;2024-02-28T10:28:55;22.00;37.70
83327;DHT22;73250;55.594;13.020;2024-02-28T10:31:22;22.00;37.60
83327;DHT22;73250;55.594;13.020;2024-02-28T10:33:49;22.10;37.70
83327;DHT22;73250;55.594;13.020;2024-02-28T10:36:16;22.10;37.70
83327;DHT22;73250;55.594;13.020;2024-02-28T10:38:44;22.10;37.70
83327;DHT22;73250;55.594;13.020;2024-02-28T10:41:12;22.10;37.70
83327;DHT22;73250;55.594;13.020;2024-02-28T10:43:41;22.10;37.80
83327;DHT22;73250;55.594;13.020;2024-02-28T10:46:09;22.10;37.80
83327;DHT22;73250;55.594;13.020;2024-02-28T10:48:35;22.10;37.80
83327;DHT22;73250;55.594;13.020;2024-02-28T10:51:03;22.10;37.60
83327;DHT22;73250;55.594;13.020;2024-02-28T10:53:36;22.10;37.60
83327;DHT22;73250;55.594;13.020;2024-02-28T10:56:03;22.10;37.70
83327;DHT22;73250;55.594;13.020;2024-02-28T10:58:35;22.20;37.50
83327;DHT22;73250;55.594;13.020;2024-02-28T11:01:03;22.20;37.50
83327;DHT22;73250;55.594;13.020;2024-02-28T11:03:30;22.20;37.40
83327;DHT22;73250;55.594;13.020;2024-02-28T11:05:57;22.20;37.30
83327;DHT22;73250;55.594;13.020;2024-02-28T11:08:27;22.20;37.40
83327;DHT22;73250;55.594;13.020;2024-02-28T11:10:55;22.20;37.40
83327;DHT22;73250;55.594;13.020;2024-02-28T11:13:22;22.20;37.20
83327;DHT22;73250;55.594;13.020;2024-02-28T11:15:51;22.20;37.40
83327;DHT22;73250;55.594;13.020;2024-02-28T11:18:18;22.20;37.20
83327;DHT22;73250;55.594;13.020;2024-02-28T11:20:44;22.10;37.00
83327;DHT22;73250;55.594;13.020;2024-02-28T11:23:14;22.10;37.10
83327;DHT22;73250;55.594;13.020;2024-02-28T11:25:41;22.10;37.20
83327;DHT22;73250;55.594;13.020;2024-02-28T11:28:08;22.20;37.20
83327;DHT22;73250;55.594;13.020;2024-02-28T11:30:35;22.10;37.20
83327;DHT22;73250;55.594;13.020;2024-02-28T11:33:04;22.10;37.30
83327;DHT22;73250;55.594;13.020;2024-02-28T11:35:32;22.10;37.20
83327;DHT22;73250;55.594;13.020;2024-02-28T11:37:59;22.10;37.10
83327;DHT22;73250;55.594;13.020;2024-02-28T11:40:26;22.10;37.10
83327;DHT22;73250;55.594;13.020;2024-02-28T11:42:52;22.10;37.00
83327;DHT22;73250;55.594;13.020;2024-02-28T11:45:20;22.20;37.20
83327;DHT22;73250;55.594;13.020;2024-02-28T11:47:47;22.20;37.10
83327;DHT22;73250;55.594;13.020;2024-02-28T11:50:15;22.10;37.20
83327;DHT22;73250;55.594;13.020;2024-02-28T11:52:44;22.20;37.00
83327;DHT22;73250;55.594;13.020;2024-02-28T11:55:10;22.20;37.10
83327;DHT22;73250;55.594;13.020;2024-02-28T11:57:37;22.20;37.00
83327;DHT22;73250;55.594;13.020;2024-02-28T12:00:07;22.20;37.20
83327;DHT22;73250;55.594;13.020;2024-02-28T12:02:34;22.20;37.10
83327;DHT22;73250;55.594;13.020;2024-02-28T12:05:02;22.20;37.30
83327;DHT22;73250;55.594;13.020;2024-02-28T12:07:30;22.20;37.20
83327;DHT22;73250;55.594;13.020;2024-02-28T12:09:57;22.20;37.20
83327;DHT22;73250;55.594;13.020;2024-02-28T12:12:24;22.20;37.10
83327;DHT22;73250;55.594;13.020;2024-02-28T12:14:51;22.20;37.20
83327;DHT22;73250;55.594;13.020;2024-02-28T12:17:18;22.20;37.40
83327;DHT22;73250;55.594;13.020;2024-02-28T12:19:44;22.20;37.40
83327;DHT22;73250;55.594;13.020;2024-02-28T12:22:11;22.20;37.10
83327;DHT22;73250;55.594;13.020;2024-02-28T12:24:39;22.20;37.10
83327;DHT22;73250;55.594;13.020;2024-02-28T12:27:06;22.20;37.40
83327;DHT22;73250;55.594;13.020;2024-02-28T12:29:32;22.20;37.40
83327;DHT22;73250;55.594;13.020;2024-02-28T12:31:59;22.20;37.30
83327;DHT22;73250;55.594;13.020;2024-02-28T12:34:26;22.20;37.20
83327;DHT22;73250;55.594;13.020;2024-02-28T12:36:53;22.30;37.70
83327;DHT22;73250;55.594;13.020;2024-02-28T12:39:20;22.30;37.70
83327;DHT22;73250;55.594;13.020;2024-02-28T12:41:49;22.20;37.20
83327;DHT22;73250;55.594;13.020;2024-02-28T12:44:15;22.30;37.30
83327;DHT22;73250;55.594;13.020;2024-02-28T12:46:42;22.30;37.50
83327;DHT22;73250;55.594;13.020;2024-02-28T12:49:09;22.30;37.60
83327;DHT22;73250;55.594;13.020;2024-02-28T12:51:37;22.30;37.70
83327;DHT22;73250;55.594;13.020;2024-02-28T12:54:05;22.30;37.70
83327;DHT22;73250;55.594;13.020;2024-02-28T12:56:32;22.30;37.80
83327;DHT22;73250;55.594;13.020;2024-02-28T12:59:00;22.30;37.70
83327;DHT22;73250;55.594;13.020;2024-02-28T13:01:27;22.30;37.80
83327;DHT22;73250;55.594;13.020;2024-02-28T13:03:54;22.30;37.70
83327;DHT22;73250;55.594;13.020;2024-02-28T13:06:21;22.40;37.90
83327;DHT22;73250;55.594;13.020;2024-02-28T13:08:48;22.40;38.00
83327;DHT22;73250;55.594;13.020;2024-02-28T13:11:17;22.40;38.00
83327;DHT22;73250;55.594;13.020;2024-02-28T13:13:45;22.40;37.90
83327;DHT22;73250;55.594;13.020;2024-02-28T13:16:13;22.50;38.10
83327;DHT22;73250;55.594;13.020;2024-02-28T13:18:40;22.50;38.10
83327;DHT22;73250;55.594;13.020;2024-02-28T13:21:06;22.50;38.10
83327;DHT22;73250;55.594;13.020;2024-02-28T13:23:33;22.50;38.00
83327;DHT22;73250;55.594;13.020;2024-02-28T13:26:00;22.50;38.00
83327;DHT22;73250;55.594;13.020;2024-02-28T13:28:27;22.50;38.00
83327;DHT22;73250;55.594;13.020;2024-02-28T13:30:56;22.50;38.00
83327;DHT22;73250;55.594;13.020;2024-02-28T13:33:24;22.50;37.70
83327;DHT22;73250;55.594;13.020;2024-02-28T13:35:51;22.50;37.70
83327;DHT22;73250;55.594;13.020;2024-02-28T13:38:19;22.40;37.50
83327;DHT22;73250;55.594;13.020;2024-02-28T13:40:46;22.40;37.60
83327;DHT22;73250;55.594;13.020;2024-02-28T13:43:14;22.40;37.30
83327;DHT22;73250;55.594;13.020;2024-02-28T13:45:41;22.50;36.90
83327;DHT22;73250;55.594;13.020;2024-02-28T13:48:16;22.40;37.00
83327;DHT22;73250;55.594;13.020;2024-02-28T13:50:45;22.50;37.10
83327;DHT22;73250;55.594;13.020;2024-02-28T13:53:12;22.50;37.00
83327;DHT22;73250;55.594;13.020;2024-02-28T13:55:39;22.50;37.20
83327;DHT22;73250;55.594;13.020;2024-02-28T13:58:06;22.50;36.90
83327;DHT22;73250;55.594;13.020;2024-02-28T14:00:33;22.50;37.30
83327;DHT22;73250;55.594;13.020;2024-02-28T14:03:04;22.50;37.20
83327;DHT22;73250;55.594;13.020;2024-02-28T14:05:31;22.50;37.50
83327;DHT22;73250;55.594;13.020;2024-02-28T14:07:59;22.50;37.20
83327;DHT22;73250;55.594;13.020;2024-02-28T14:10:29;22.50;37.30
83327;DHT22;73250;55.594;13.020;2024-02-28T14:12:56;22.50;37.30
83327;DHT22;73250;55.594;13.020;2024-02-28T14:15:23;22.50;37.70
83327;DHT22;73250;55.594;13.020;2024-02-28T14:17:50;22.60;37.70
83327;DHT22;73250;55.594;13.020;2024-02-28T14:20:18;22.60;37.70
83327;DHT22;73250;55.594;13.020;2024-02-28T14:22:44;22.50;37.50
83327;DHT22;73250;55.594;13.020;2024-02-28T14:25:14;22.50;37.50
83327;DHT22;73250;55.594;13.020;2024-02-28T14:27:44;22.50;37.40
83327;DHT22;73250;55.594;13.020;2024-02-28T14:30:12;22.50;37.40
83327;DHT22;73250;55.594;13.020;2024-02-28T14:32:39;22.50;37.50
83327;DHT22;73250;55.594;13.020;2024-02-28T14:35:08;22.50;37.60
83327;DHT22;73250;55.594;13.020;2024-02-28T14:37:36;22.50;37.70
83327;DHT22;73250;55.594;13.020;2024-02-28T14:40:04;22.50;37.70
83327;DHT22;73250;55.594;13.020;2024-02-28T14:42:36;22.50;37.70
83327;DHT22;73250;55.594;13.020;2024-02-28T14:45:04;22.60;38.00
83327;DHT22;73250;55.594;13.020;2024-02-28T14:47:31;22.50;37.70
83327;DHT22;73250;55.594;13.020;2024-02-28T14:49:59;22.50;37.50
83327;DHT22;73250;55.594;13.020;2024-02-28T14:52:26;22.60;37.70
83327;DHT22;73250;55.594;13.020;2024-02-28T14:54:52;22.60;37.90
83327;DHT22;73250;55.594;13.020;2024-02-28T14:57:19;22.50;38.30
83327;DHT22;73250;55.594;13.020;2024-02-28T14:59:47;22.60;38.10
83327;DHT22;73250;55.594;13.020;2024-02-28T15:02:14;22.60;37.90
83327;DHT22;73250;55.594;13.020;2024-02-28T15:04:41;22.60;37.50
83327;DHT22;73250;55.594;13.020;2024-02-28T15:07:07;22.60;37.90
83327;DHT22;73250;55.594;13.020;2024-02-28T15:09:34;22.60;37.80
83327;DHT22;73250;55.594;13.020;2024-02-28T15:12:02;22.70;37.80
83327;DHT22;73250;55.594;13.020;2024-02-28T15:14:29;22.60;37.90